Time;durP1;ratioP1;P1;durP2;ratioP2;P2;SDS_P1;SDS_P2;PMS_P1;PMS_P2;Temp;Humidity;BMP_temperature;BMP_pressure;BME280_temperature;BME280_humidity;BME280_pressure;Samples;Min_cycle;Max_cycle;Signal;HPM_P1;HPM_P2
2022/07/04 00:01:46;;;;;;;1.82;1.10;;;;;;;29.21;39.75;99257.19;1904984;74;28093;-49
2022/07/04 00:04:35;;;;;;;1.20;1.20;;;;;;;29.25;39.66;99249.42;1881910;74;27969;-49
2022/07/04 00:07:23;;;;;;;1.17;1.10;;;;;;;29.28;39.49;99250.79;1902875;74;28005;-48
2022/07/04 00:10:14;;;;;;;1.10;1.00;;;;;;;29.31;39.34;99241.93;1901684;75;28185;-47
2022/07/04 00:13:02;;;;;;;0.90;0.90;;;;;;;29.30;38.99;99243.03;1904927;74;27975;-48
2022/07/04 00:15:51;;;;;;;0.95;0.93;;;;;;;29.28;38.80;99241.11;1906493;74;28069;-49
2022/07/04 00:18:39;;;;;;;0.88;0.88;;;;;;;29.21;38.67;99234.51;1899015;74;28146;-48
2022/07/04 00:21:28;;;;;;;1.00;1.00;;;;;;;29.23;38.51;99252.20;1906654;74;28201;-45
2022/07/04 00:24:16;;;;;;;1.10;1.10;;;;;;;29.24;38.63;99215.94;1882915;75;28054;-46
2022/07/04 00:27:05;;;;;;;1.30;1.10;;;;;;;29.31;38.66;99219.80;1901224;75;28026;-46
2022/07/04 00:29:54;;;;;;;1.20;1.03;;;;;;;29.39;38.59;99242.70;1901904;74;28136;-47
2022/07/04 00:32:42;;;;;;;1.00;1.00;;;;;;;29.44;38.52;99267.58;1904576;74;28145;-45
2022/07/04 00:35:30;;;;;;;2.75;0.88;;;;;;;29.43;38.40;99270.64;1883756;74;31865;-48
2022/07/04 00:38:18;;;;;;;0.80;0.80;;;;;;;29.32;38.36;99283.14;1903741;74;27992;-45
2022/07/04 00:41:07;;;;;;;1.10;0.93;;;;;;;29.27;38.44;99275.41;1903922;74;28114;-47
2022/07/04 00:44:07;;;;;;;0.60;0.60;;;;;;;29.21;38.50;99294.53;1904938;74;28131;-46
2022/07/04 00:46:55;;;;;;;0.78;0.75;;;;;;;29.18;38.49;99308.92;1869440;76;28132;-45
2022/07/04 00:49:44;;;;;;;0.95;0.70;;;;;;;29.10;38.57;99298.43;1898696;75;28103;-47
2022/07/04 00:52:32;;;;;;;0.90;0.90;;;;;;;29.10;38.48;99299.81;1901654;75;27921;-46
2022/07/04 00:55:23;;;;;;;0.80;0.80;;;;;;;29.06;38.44;99291.78;1901769;75;28341;-47
2022/07/04 00:58:14;;;;;;;0.70;0.70;;;;;;;28.95;38.55;99309.53;1879716;75;27995;-47
2022/07/04 01:01:02;;;;;;;1.55;0.72;;;;;;;28.92;38.55;99318.38;1877072;75;28076;-46
2022/07/04 01:03:50;;;;;;;1.57;1.00;;;;;;;28.88;38.52;99317.29;1878885;75;28057;-47
2022/07/04 01:06:39;;;;;;;1.10;0.70;;;;;;;28.88;38.59;99315.91;1889525;75;28055;-47
2022/07/04 01:09:27;;;;;;;0.60;0.60;;;;;;;28.89;38.63;99324.49;1883001;74;27981;-48
2022/07/04 01:12:29;;;;;;;0.70;0.70;;;;;;;28.95;38.62;99334.42;1906950;74;28188;-47
2022/07/04 01:15:18;;;;;;;0.72;0.72;;;;;;;28.98;38.53;99326.41;1890165;75;28584;-49
2022/07/04 01:18:06;;;;;;;0.80;0.80;;;;;;;29.03;38.49;99327.78;1893397;75;28056;-48
2022/07/04 01:20:55;;;;;;;0.75;0.75;;;;;;;29.12;38.42;99329.41;1895052;74;27973;-47
2022/07/04 01:23:44;;;;;;;0.70;0.70;;;;;;;29.21;38.32;99323.59;1897173;75;28167;-48
2022/07/04 01:26:32;;;;;;;0.78;0.78;;;;;;;29.29;38.21;99332.70;1889010;75;27988;-47
2022/07/04 01:29:21;;;;;;;1.15;0.80;;;;;;;29.34;38.14;99330.72;1901144;75;27984;-47
2022/07/04 01:32:11;;;;;;;0.90;0.90;;;;;;;29.33;38.19;99333.23;1881914;74;27997;-49
2022/07/04 01:34:59;;;;;;;0.77;0.77;;;;;;;29.37;38.14;99336.25;1903759;74;27977;-46
2022/07/04 01:37:48;;;;;;;0.95;0.90;;;;;;;29.37;38.20;99337.08;1903782;74;28587;-47
2022/07/04 01:40:37;;;;;;;0.87;0.87;;;;;;;29.41;38.16;99339.55;1889438;75;28002;-48
2022/07/04 01:43:25;;;;;;;0.70;0.70;;;;;;;29.43;38.15;99346.75;1903517;74;38303;-47
2022/07/04 01:46:14;;;;;;;1.50;0.90;;;;;;;29.45;38.15;99337.61;1903662;74;28022;-48
2022/07/04 01:49:02;;;;;;;0.90;0.90;;;;;;;29.43;38.14;99329.56;1903842;74;28205;-50
2022/07/04 01:51:52;;;;;;;1.00;1.00;;;;;;;29.44;38.19;99325.70;1875896;75;27995;-47
2022/07/04 01:54:40;;;;;;;0.70;0.70;;;;;;;29.47;38.14;99324.30;1889767;75;28131;-47
2022/07/04 01:57:28;;;;;;;1.00;1.00;;;;;;;29.48;38.17;99330.13;1905882;74;28005;-46
2022/07/04 02:03:24;;;;;;;0.90;0.90;;;;;;;29.49;38.22;99319.31;1857145;75;28148;-47
2022/07/04 02:06:12;;;;;;;0.80;0.80;;;;;;;29.46;38.26;99316.55;1871712;75;27922;-47
2022/07/04 02:09:16;;;;;;;0.90;0.90;;;;;;;29.48;38.24;99312.94;1890838;75;28051;-47
2022/07/04 02:15:12;;;;;;;1.00;1.00;;;;;;;29.49;38.27;99300.77;1905640;74;28563;-47
2022/07/04 02:18:01;;;;;;;1.20;1.00;;;;;;;29.45;38.34;99299.69;1905114;74;27928;-45
2022/07/04 02:20:49;;;;;;;0.80;0.80;;;;;;;29.50;38.28;99302.98;1887392;74;28246;-47
2022/07/04 02:23:38;;;;;;;1.00;0.72;;;;;;;29.51;38.28;99299.92;1866682;74;28205;-47
2022/07/04 02:26:27;;;;;;;1.00;1.00;;;;;;;29.52;38.30;99293.29;1901031;75;27942;-47
2022/07/04 02:29:16;;;;;;;1.05;1.05;;;;;;;29.52;38.29;99292.45;1893791;75;28017;-49
2022/07/04 02:32:06;;;;;;;3.20;1.10;;;;;;;29.49;38.31;99282.78;1895681;75;28098;-49
2022/07/04 02:34:54;;;;;;;1.00;1.00;;;;;;;29.53;38.31;99296.86;1905877;74;28164;-46
2022/07/04 02:37:43;;;;;;;0.82;0.82;;;;;;;29.52;38.32;99296.61;1895508;75;28519;-45
2022/07/04 02:40:31;;;;;;;0.90;0.90;;;;;;;29.53;38.32;99283.86;1877715;75;28013;-49
2022/07/04 02:43:20;;;;;;;0.90;0.90;;;;;;;29.53;38.37;99278.32;1889417;75;27932;-48
2022/07/04 02:46:08;;;;;;;1.00;1.00;;;;;;;29.54;38.33;99277.22;1889480;75;28187;-47
2022/07/04 02:48:56;;;;;;;1.55;1.00;;;;;;;29.54;38.30;99284.69;1901429;75;28196;-48
2022/07/04 02:51:45;;;;;;;0.85;0.85;;;;;;;29.54;38.31;99279.98;1875940;75;28246;-46
2022/07/04 02:54:33;;;;;;;1.00;1.00;;;;;;;29.54;38.27;99288.84;1896027;75;28822;-45
2022/07/04 02:57:21;;;;;;;2.40;1.00;;;;;;;29.51;38.34;99299.92;1901572;75;28086;-48
2022/07/04 03:00:12;;;;;;;0.85;0.85;;;;;;;29.51;38.33;99301.31;1905348;74;28117;-46
2022/07/04 03:03:00;;;;;;;0.88;0.88;;;;;;;29.48;38.44;99297.72;1868417;76;28143;-48
2022/07/04 03:05:49;;;;;;;0.82;0.82;;;;;;;29.52;38.39;99293.29;1897821;74;27997;-46
2022/07/04 03:08:38;;;;;;;2.17;0.95;;;;;;;29.53;38.31;99283.86;1907741;74;28004;-47
2022/07/04 03:11:26;;;;;;;1.07;1.07;;;;;;;29.52;38.38;99284.16;1904949;74;28024;-46
2022/07/04 03:14:15;;;;;;;1.05;1.05;;;;;;;29.51;38.41;99286.63;1901632;74;28085;-50
2022/07/04 03:17:03;;;;;;;0.90;0.90;;;;;;;29.51;38.42;99286.09;1906033;74;28224;-45
2022/07/04 03:19:52;;;;;;;1.10;1.00;;;;;;;29.51;38.44;99283.31;1901153;74;28151;-48
2022/07/04 03:22:41;;;;;;;1.30;1.20;;;;;;;29.52;38.40;99278.06;1897670;74;28142;-47
2022/07/04 03:25:29;;;;;;;1.35;1.00;;;;;;;29.53;38.43;99281.64;1907612;74;27984;-47
2022/07/04 03:28:18;;;;;;;1.00;1.00;;;;;;;29.54;38.41;99281.38;1903486;74;28646;-48
2022/07/04 03:31:07;;;;;;;1.02;1.02;;;;;;;29.50;38.49;99291.92;1904107;74;28126;-46
2022/07/04 03:33:55;;;;;;;2.02;1.10;;;;;;;29.47;38.54;99292.48;1869166;76;28227;-44
2022/07/04 03:36:44;;;;;;;1.10;1.10;;;;;;;29.42;38.69;99294.72;1903136;74;31169;-50
2022/07/04 03:39:32;;;;;;;1.20;1.05;;;;;;;29.36;38.88;99284.77;1906347;74;27981;-45
2022/07/04 03:42:20;;;;;;;1.30;1.20;;;;;;;29.37;38.87;99290.03;1904526;74;28204;-48
2022/07/04 03:45:10;;;;;;;1.17;1.17;;;;;;;29.39;38.86;99289.20;1883801;74;28022;-50
2022/07/04 03:47:58;;;;;;;1.15;1.15;;;;;;;29.41;38.85;99286.13;1902554;74;27962;-48
2022/07/04 03:50:47;;;;;;;1.15;1.15;;;;;;;29.43;38.83;99279.75;1901654;75;28188;-47
2022/07/04 03:53:36;;;;;;;1.17;1.15;;;;;;;29.47;38.73;99280.02;1904312;74;28258;-46
2022/07/04 03:56:24;;;;;;;1.87;1.15;;;;;;;29.40;38.89;99282.56;1903391;74;28217;-48
2022/07/04 03:59:13;;;;;;;1.20;1.20;;;;;;;29.33;39.06;99293.66;1902504;74;28134;-47
2022/07/04 04:02:01;;;;;;;2.05;1.25;;;;;;;29.23;39.28;99297.84;1899576;74;28164;-48
2022/07/04 04:07:58;;;;;;;1.05;1.05;;;;;;;29.17;39.49;99311.41;1820062;77;28267;-48
2022/07/04 04:10:46;;;;;;;0.95;0.95;;;;;;;29.13;39.62;99307.53;1838727;77;28318;-46
2022/07/04 04:13:35;;;;;;;1.02;1.02;;;;;;;29.02;39.76;99311.45;1838760;77;28299;-46
2022/07/04 04:16:24;;;;;;;1.10;1.10;;;;;;;28.95;39.87;99306.22;1822815;77;28374;-48
2022/07/04 04:19:12;;;;;;;1.30;1.20;;;;;;;28.96;39.93;99316.18;1822548;77;28283;-47
2022/07/04 04:22:00;;;;;;;1.10;1.10;;;;;;;28.92;40.08;99322.52;1870164;76;28226;-47
2022/07/04 04:24:49;;;;;;;1.30;1.20;;;;;;;28.93;40.00;99329.18;1862005;76;28296;-48
2022/07/04 04:27:38;;;;;;;1.40;1.17;;;;;;;28.98;39.98;99335.25;1873793;76;28318;-49
2022/07/04 04:30:26;;;;;;;2.40;1.10;;;;;;;28.96;39.91;99342.45;1852802;76;28246;-49
2022/07/04 04:33:15;;;;;;;1.40;1.10;;;;;;;28.94;40.07;99346.61;1865201;76;28099;-47
2022/07/04 04:36:04;;;;;;;0.98;0.98;;;;;;;28.83;40.27;99344.95;1861806;76;38569;-49
2022/07/04 04:38:52;;;;;;;1.67;1.20;;;;;;;28.63;40.64;99348.04;1867201;76;28120;-47
2022/07/04 04:41:41;;;;;;;1.10;1.10;;;;;;;28.49;40.96;99348.30;1868731;76;28366;-46
2022/07/04 04:44:29;;;;;;;1.25;1.25;;;;;;;28.40;41.16;99351.30;1864134;76;28041;-49
2022/07/04 04:47:18;;;;;;;1.10;1.10;;;;;;;28.29;41.42;99349.66;1873849;76;28749;-51
2022/07/04 04:50:11;;;;;;;0.90;0.90;;;;;;;28.17;41.55;99349.66;1832639;76;28288;-52
2022/07/04 04:52:57;;;;;;;1.92;1.00;;;;;;;28.06;41.64;99354.33;1865857;76;28253;-48
2022/07/04 04:55:46;;;;;;;1.00;1.00;;;;;;;28.03;41.71;99360.39;1849478;76;28245;-48
2022/07/04 04:58:34;;;;;;;1.22;1.20;;;;;;;28.06;41.73;99361.23;1841080;77;28259;-50
2022/07/04 05:01:22;;;;;;;1.00;1.00;;;;;;;28.20;41.55;99361.52;1823636;77;28335;-47
2022/07/04 05:04:11;;;;;;;2.02;1.00;;;;;;;28.20;41.48;99356.83;1857307;76;28314;-50
2022/07/04 05:06:59;;;;;;;1.00;1.00;;;;;;;28.31;41.34;99355.73;1914306;74;28023;-51
2022/07/04 05:09:49;;;;;;;1.12;1.12;;;;;;;28.37;41.36;99347.73;1855123;76;28196;-51
2022/07/04 05:12:37;;;;;;;1.50;1.10;;;;;;;28.44;41.32;99355.20;1867085;76;28247;-49
2022/07/04 05:15:25;;;;;;;1.37;1.13;;;;;;;28.52;41.15;99356.00;1840619;77;28309;-46
2022/07/04 05:18:15;;;;;;;1.17;1.10;;;;;;;28.59;41.07;99355.78;1860982;76;28251;-47
2022/07/04 05:21:04;;;;;;;1.10;1.10;;;;;;;28.68;40.86;99354.92;1873264;76;28257;-50
2022/07/04 05:23:53;;;;;;;1.07;1.07;;;;;;;28.79;40.61;99363.21;1829032;77;28483;-47
2022/07/04 05:26:43;;;;;;;1.07;1.00;;;;;;;28.83;40.50;99361.53;1846029;77;28235;-50
2022/07/04 05:29:31;;;;;;;1.20;1.20;;;;;;;28.88;40.38;99356.00;1835867;77;28355;-47
2022/07/04 05:32:20;;;;;;;1.02;1.02;;;;;;;28.92;40.31;99360.69;1812238;77;32322;-50
2022/07/04 05:35:11;;;;;;;1.30;1.20;;;;;;;28.99;40.21;99359.02;1870056;76;28267;-47
2022/07/04 05:37:59;;;;;;;1.20;1.10;;;;;;;29.02;40.14;99361.23;1833239;76;28385;-48
2022/07/04 05:40:48;;;;;;;1.10;1.10;;;;;;;29.05;40.15;99359.30;1838725;77;28301;-46
2022/07/04 05:43:36;;;;;;;1.23;1.13;;;;;;;29.09;40.08;99354.84;1819760;77;28313;-48
2022/07/04 05:46:25;;;;;;;1.67;1.10;;;;;;;29.12;40.03;99357.06;1816915;77;28269;-50
2022/07/04 05:49:13;;;;;;;1.35;1.07;;;;;;;29.17;40.05;99357.86;1842269;77;28294;-49
2022/07/04 05:52:02;;;;;;;1.20;1.10;;;;;;;29.18;39.92;99360.11;1872968;76;39090;-51
2022/07/04 05:54:50;;;;;;;1.83;1.00;;;;;;;29.20;39.94;99352.34;1839189;77;28328;-49
2022/07/04 05:57:38;;;;;;;1.10;1.00;;;;;;;29.24;39.88;99358.42;1867130;76;28242;-50
2022/07/04 06:00:26;;;;;;;1.00;1.00;;;;;;;29.24;39.90;99357.03;1838345;77;28235;-51
2022/07/04 06:03:14;;;;;;;1.60;1.00;;;;;;;29.25;39.88;99362.02;1806914;77;28425;-47
2022/07/04 06:06:03;;;;;;;1.00;1.00;;;;;;;29.28;39.81;99361.47;1828580;77;28226;-48
2022/07/04 06:08:52;;;;;;;1.05;1.05;;;;;;;29.29;39.83;99357.60;1886261;74;28195;-49
2022/07/04 06:11:40;;;;;;;1.00;1.00;;;;;;;29.30;39.80;99357.86;1888311;74;28326;-51
2022/07/04 06:14:29;;;;;;;1.00;1.00;;;;;;;29.32;39.71;99352.86;1827059;77;28289;-48
2022/07/04 06:17:17;;;;;;;0.93;0.93;;;;;;;29.31;39.70;99351.23;1886068;74;28624;-47
2022/07/04 06:20:07;;;;;;;0.80;0.80;;;;;;;29.38;39.70;99350.38;1821474;77;28313;-46
2022/07/04 06:22:56;;;;;;;1.25;1.15;;;;;;;29.40;39.62;99339.84;1878581;74;28232;-50
2022/07/04 06:25:45;;;;;;;1.00;1.00;;;;;;;29.42;39.58;99336.23;1905639;75;28245;-47
2022/07/04 06:28:33;;;;;;;1.00;1.00;;;;;;;29.47;39.57;99340.91;1900792;74;28232;-47
2022/07/04 06:31:22;;;;;;;1.10;1.10;;;;;;;29.48;39.56;99338.43;1834046;77;28222;-51
2022/07/04 06:37:17;;;;;;;1.00;1.00;;;;;;;29.47;39.61;99336.21;1826933;77;28305;-52
2022/07/04 06:40:08;;;;;;;1.30;1.00;;;;;;;29.46;39.61;99333.16;1899459;74;28182;-46
2022/07/04 06:42:56;;;;;;;1.10;1.00;;;;;;;29.49;39.71;99335.37;1837360;76;28475;-49
2022/07/04 06:45:44;;;;;;;1.20;1.10;;;;;;;29.51;39.84;99331.75;1818632;77;28535;-49
2022/07/04 06:48:33;;;;;;;2.40;1.10;;;;;;;29.51;39.87;99328.98;1820523;77;28350;-48
2022/07/04 06:51:21;;;;;;;1.03;1.03;;;;;;;29.51;39.93;99319.30;1859970;76;28449;-47
2022/07/04 06:54:10;;;;;;;1.00;0.95;;;;;;;29.55;40.18;99318.99;1832684;77;28343;-51
2022/07/04 06:56:58;;;;;;;2.58;1.10;;;;;;;29.55;40.40;99320.38;1880572;74;28199;-53
2022/07/04 06:59:47;;;;;;;1.20;1.10;;;;;;;29.59;40.26;99310.97;1882648;73;28285;-50
2022/07/04 07:02:36;;;;;;;0.98;0.98;;;;;;;29.60;40.34;99315.37;1890929;74;28218;-49
2022/07/04 07:05:26;;;;;;;1.00;1.00;;;;;;;29.64;40.29;99304.02;1874237;74;28167;-50
2022/07/04 07:08:15;;;;;;;4.10;1.20;;;;;;;29.66;40.32;99294.31;1840357;74;28293;-50
2022/07/04 07:11:13;;;;;;;1.20;1.10;;;;;;;29.67;40.32;99302.88;1847817;75;28200;-49
2022/07/04 07:14:01;;;;;;;0.90;0.90;;;;;;;29.67;40.29;99295.95;1849062;74;28225;-52
2022/07/04 07:16:49;;;;;;;2.40;0.90;;;;;;;29.63;40.33;99304.57;1848563;76;28038;-49
2022/07/04 07:19:38;;;;;;;3.33;1.20;;;;;;;29.68;40.38;99309.25;1847349;74;28087;-53
2022/07/04 07:22:26;;;;;;;1.67;1.07;;;;;;;29.69;40.34;99311.72;1856077;74;28185;-50
2022/07/04 07:25:14;;;;;;;1.00;1.00;;;;;;;29.70;40.32;99313.39;1845852;74;28266;-52
2022/07/04 07:28:03;;;;;;;1.50;0.90;;;;;;;29.74;40.49;99307.54;1871916;74;28103;-50
2022/07/04 07:30:52;;;;;;;1.70;1.10;;;;;;;29.74;40.45;99302.00;1850342;76;28128;-49
2022/07/04 07:33:40;;;;;;;1.30;1.07;;;;;;;29.75;40.41;99305.05;1858991;76;28876;-48
2022/07/04 07:36:28;;;;;;;1.40;0.93;;;;;;;29.75;40.45;99302.28;1849905;74;28662;-49
2022/07/04 07:39:17;;;;;;;1.60;1.20;;;;;;;29.79;40.47;99299.23;1847838;76;28097;-48
2022/07/04 07:42:06;;;;;;;1.00;1.00;;;;;;;29.84;40.48;99301.14;1859935;76;28091;-49
2022/07/04 07:44:54;;;;;;;2.22;1.05;;;;;;;29.79;40.62;99296.47;1839158;76;28121;-50
2022/07/04 07:47:42;;;;;;;2.30;0.90;;;;;;;29.82;40.58;99311.13;1857576;76;28094;-48
2022/07/04 07:50:31;;;;;;;0.85;0.85;;;;;;;29.80;40.55;99306.41;1852225;76;28088;-49
2022/07/04 07:53:19;;;;;;;0.98;0.98;;;;;;;29.79;40.61;99305.33;1849682;76;28008;-52
2022/07/04 07:56:08;;;;;;;1.82;0.90;;;;;;;29.80;40.67;99298.11;1842809;76;28181;-51
2022/07/04 07:58:57;;;;;;;0.90;0.90;;;;;;;29.79;40.66;99302.01;1853117;76;28198;-51
2022/07/04 08:01:45;;;;;;;0.90;0.90;;;;;;;29.82;40.66;99308.36;1858528;76;28282;-48
2022/07/04 08:04:42;;;;;;;0.90;0.90;;;;;;;29.86;40.48;99308.60;1857456;76;28578;-48
2022/07/04 08:07:26;;;;;;;1.10;1.10;;;;;;;29.84;40.52;99310.29;1874401;74;28190;-51
2022/07/04 08:10:15;;;;;;;1.00;1.00;;;;;;;29.83;40.49;99308.62;1851446;74;28167;-45
2022/07/04 08:13:05;;;;;;;1.00;1.00;;;;;;;29.83;40.61;99314.16;1836978;77;28228;-48
2022/07/04 08:15:53;;;;;;;1.57;1.00;;;;;;;29.84;40.88;99311.67;1857026;74;28172;-50
2022/07/04 08:18:42;;;;;;;1.55;1.10;;;;;;;29.83;40.80;99303.08;1844293;76;28213;-50
2022/07/04 08:21:30;;;;;;;2.70;1.10;;;;;;;29.83;40.74;99300.86;1853303;76;28148;-51
2022/07/04 08:24:19;;;;;;;1.20;1.10;;;;;;;29.86;40.67;99294.20;1854444;76;28089;-48
2022/07/04 08:27:07;;;;;;;2.60;1.20;;;;;;;29.91;40.61;99294.73;1862028;76;28136;-49
2022/07/04 08:29:55;;;;;;;1.10;1.10;;;;;;;29.87;40.72;99293.66;1860537;76;28113;-48
2022/07/04 08:32:44;;;;;;;1.50;1.00;;;;;;;29.89;40.69;99302.50;1857937;76;28027;-51
2022/07/04 08:35:33;;;;;;;1.17;1.10;;;;;;;29.87;40.65;99300.00;1852356;76;28145;-49
2022/07/04 08:38:22;;;;;;;1.05;1.05;;;;;;;29.88;40.64;99289.75;1881016;74;28177;-46
2022/07/04 08:41:10;;;;;;;1.00;1.00;;;;;;;29.88;40.59;99292.52;1859014;74;28175;-50
2022/07/04 08:43:59;;;;;;;1.05;1.05;;;;;;;29.91;40.51;99286.42;1869537;75;28166;-50
2022/07/04 08:46:50;;;;;;;1.20;1.10;;;;;;;29.90;40.61;99283.36;1839185;76;28263;-49
2022/07/04 08:49:41;;;;;;;1.25;1.10;;;;;;;29.91;40.63;99273.41;1857693;76;28317;-51
2022/07/04 08:52:38;;;;;;;1.45;1.00;;;;;;;29.87;40.70;99279.81;1860191;76;28114;-51
2022/07/04 08:58:35;;;;;;;1.20;1.20;;;;;;;29.92;40.78;99286.12;1838873;77;28324;-50
2022/07/04 09:01:25;;;;;;;1.00;1.00;;;;;;;29.93;40.72;99297.48;1840963;76;28161;-50
2022/07/04 09:04:14;;;;;;;1.10;1.00;;;;;;;29.94;40.76;99294.96;1859747;76;28381;-48
2022/07/04 09:07:04;;;;;;;1.15;1.02;;;;;;;29.92;40.89;99297.20;1869923;74;28244;-51
2022/07/04 09:09:53;;;;;;;1.00;1.00;;;;;;;29.95;40.83;99299.40;1865739;75;28230;-49
2022/07/04 09:12:41;;;;;;;1.00;1.00;;;;;;;29.97;40.81;99298.55;1829222;77;28222;-47
2022/07/04 09:15:31;;;;;;;1.53;1.40;;;;;;;29.95;40.89;99300.78;1876484;75;28302;-49
2022/07/04 09:18:29;;;;;;;0.95;0.95;;;;;;;29.97;40.95;99306.86;1854213;76;28370;-50
2022/07/04 09:21:17;;;;;;;1.00;1.00;;;;;;;29.99;40.95;99311.55;1902713;74;28208;-51
2022/07/04 09:24:05;;;;;;;1.57;1.00;;;;;;;29.97;41.11;99326.25;1866149;75;28238;-51
2022/07/04 09:26:53;;;;;;;1.32;1.20;;;;;;;30.01;41.12;99326.52;1834296;77;28299;-50
2022/07/04 09:29:53;;;;;;;1.00;1.00;;;;;;;30.01;41.17;99331.48;1879654;75;28517;-47
2022/07/04 09:32:44;;;;;;;1.10;1.00;;;;;;;30.00;41.16;99339.53;1844394;77;28204;-47
2022/07/04 09:35:34;;;;;;;1.30;1.20;;;;;;;29.97;41.23;99351.18;1900442;74;28513;-48
2022/07/04 09:38:25;;;;;;;1.07;1.07;;;;;;;29.99;41.01;99347.56;1896367;75;28150;-49
2022/07/04 09:41:25;;;;;;;1.22;1.20;;;;;;;29.95;41.08;99358.12;1878633;75;28198;-50
2022/07/04 09:44:13;;;;;;;1.52;1.10;;;;;;;29.98;40.95;99358.39;1881755;75;28144;-48
2022/07/04 09:47:22;;;;;;;1.13;1.03;;;;;;;29.96;40.95;99343.17;1826278;76;28440;-49
2022/07/04 09:50:19;;;;;;;1.70;1.20;;;;;;;29.98;40.81;99339.00;1897706;74;28308;-45
2022/07/04 09:53:08;;;;;;;1.20;1.20;;;;;;;29.63;41.03;99365.48;1887889;75;28173;-48
2022/07/04 09:55:56;;;;;;;1.90;1.30;;;;;;;29.46;41.10;99339.24;1838245;77;28243;-45
2022/07/04 09:58:47;;;;;;;1.20;1.20;;;;;;;29.35;41.27;99359.23;1893916;74;28242;-45
2022/07/04 10:01:36;;;;;;;1.95;1.30;;;;;;;29.23;41.58;99347.64;1893334;73;28127;-46
2022/07/04 10:04:27;;;;;;;1.77;1.20;;;;;;;29.28;41.55;99372.53;1882605;74;28580;-47
2022/07/04 10:07:35;;;;;;;1.22;1.22;;;;;;;29.22;41.78;99351.54;1889419;74;28407;-44
2022/07/04 10:10:38;;;;;;;1.50;1.20;;;;;;;29.28;41.70;99345.70;1854449;76;28254;-47
2022/07/04 10:13:26;;;;;;;1.35;1.27;;;;;;;29.38;41.66;99351.17;1853893;76;28074;-45
2022/07/04 10:16:17;;;;;;;1.30;1.30;;;;;;;29.31;41.72;99330.47;1861903;76;28112;-46
2022/07/04 10:19:08;;;;;;;1.20;1.10;;;;;;;29.30;41.63;99318.57;1860303;76;28111;-46
2022/07/04 10:21:56;;;;;;;1.17;1.17;;;;;;;29.23;42.02;99311.68;1859076;76;28182;-44
2022/07/04 10:24:47;;;;;;;1.50;1.20;;;;;;;29.19;41.99;99339.09;1863121;74;28449;-44
2022/07/04 10:27:37;;;;;;;2.20;1.50;;;;;;;29.26;41.95;99313.34;1892396;74;28131;-46
2022/07/04 10:30:31;;;;;;;1.37;1.27;;;;;;;29.41;41.84;99298.03;1844985;76;28197;-46
2022/07/04 10:33:28;;;;;;;1.37;1.32;;;;;;;29.49;41.62;99287.48;1841310;76;28127;-47
2022/07/04 10:36:22;;;;;;;1.67;1.20;;;;;;;29.43;41.73;99276.98;1851118;76;28125;-45
2022/07/04 10:39:10;;;;;;;1.30;1.30;;;;;;;29.53;41.61;99270.56;1854659;76;28086;-49
2022/07/04 10:42:01;;;;;;;1.17;1.10;;;;;;;29.61;41.45;99261.13;1849618;76;28137;-48
2022/07/04 10:44:50;;;;;;;1.05;1.05;;;;;;;29.72;41.36;99250.80;1849546;76;28481;-46
2022/07/04 10:47:39;;;;;;;1.30;1.22;;;;;;;29.78;41.25;99244.95;1850589;76;28130;-46
2022/07/04 10:50:29;;;;;;;1.30;1.30;;;;;;;29.83;41.13;99246.31;1853370;76;28078;-45
2022/07/04 10:53:18;;;;;;;2.47;1.50;;;;;;;29.89;41.06;99245.17;1849899;76;28186;-48
2022/07/04 10:56:18;;;;;;;1.55;1.45;;;;;;;29.92;40.96;99244.58;1849871;76;28235;-50
2022/07/04 10:59:11;;;;;;;2.00;1.63;;;;;;;29.96;40.85;99225.45;1850536;75;28214;-50
2022/07/04 11:02:13;;;;;;;1.50;1.40;;;;;;;29.95;40.75;99208.55;1856114;76;28123;-46
2022/07/04 11:05:05;;;;;;;1.80;1.70;;;;;;;29.99;40.65;99207.67;1853085;76;28108;-49
2022/07/04 11:07:59;;;;;;;1.45;1.45;;;;;;;29.94;40.56;99207.72;1861623;76;32082;-52
2022/07/04 11:11:05;;;;;;;1.70;1.60;;;;;;;29.87;40.80;99211.38;1860156;76;28281;-46
2022/07/04 11:13:39;;;;;;;1.70;1.60;;;;;;;29.86;40.43;99200.05;1858982;76;28158;-48
2022/07/04 11:16:30;;;;;;;1.50;1.50;;;;;;;30.00;40.26;99198.81;1855475;76;28183;-50
2022/07/04 11:19:19;;;;;;;1.60;1.50;;;;;;;30.07;40.08;99193.21;1860063;76;28210;-49
2022/07/04 11:22:10;;;;;;;1.80;1.70;;;;;;;30.07;39.85;99189.05;1860093;76;28134;-48
2022/07/04 11:24:59;;;;;;;1.65;1.60;;;;;;;30.05;40.04;99196.84;1852242;75;28203;-47
2022/07/04 11:27:47;;;;;;;1.87;1.77;;;;;;;30.01;40.08;99205.44;1868500;75;28170;-48
2022/07/04 11:30:36;;;;;;;2.90;1.90;;;;;;;29.93;40.20;99207.46;1855280;76;28236;-50
2022/07/04 11:33:29;;;;;;;1.87;1.77;;;;;;;29.90;40.28;99210.80;1841908;76;28283;-49
2022/07/04 11:36:22;;;;;;;3.02;1.60;;;;;;;29.69;40.38;99197.38;1850356;76;28252;-49
2022/07/04 11:39:19;;;;;;;1.70;1.60;;;;;;;29.64;40.60;99181.62;1854097;76;28200;-45
2022/07/04 11:45:14;;;;;;;1.40;1.37;;;;;;;29.87;40.86;99159.34;1859732;76;28290;-48
2022/07/04 11:48:02;;;;;;;1.70;1.60;;;;;;;29.97;40.46;99160.61;1861632;76;28152;-47
2022/07/04 11:50:50;;;;;;;1.72;1.62;;;;;;;30.06;40.38;99154.70;1846506;76;28164;-48
2022/07/04 11:53:39;;;;;;;2.45;2.25;;;;;;;30.13;40.03;99151.03;1855148;76;28685;-52
2022/07/04 11:56:27;;;;;;;1.40;1.40;;;;;;;30.14;40.19;99151.86;1861080;75;28316;-49
2022/07/04 11:59:17;;;;;;;2.60;2.40;;;;;;;30.18;40.07;99133.55;1873967;75;28175;-51
2022/07/04 12:02:16;;;;;;;3.55;2.25;;;;;;;30.19;40.08;99115.23;1842369;76;28338;-49
2022/07/04 12:05:08;;;;;;;2.37;2.20;;;;;;;30.26;39.88;99102.41;1880657;75;28083;-49
2022/07/04 12:07:56;;;;;;;1.98;1.87;;;;;;;30.30;39.63;99082.68;1848146;76;28211;-52
2022/07/04 12:10:44;;;;;;;1.70;1.60;;;;;;;30.33;39.54;99082.13;1871003;75;28192;-48
2022/07/04 12:13:33;;;;;;;1.50;1.50;;;;;;;30.35;39.42;99084.05;1875343;75;28188;-48
2022/07/04 12:16:22;;;;;;;2.57;1.40;;;;;;;30.37;39.23;99091.50;1882567;75;28172;-48
2022/07/04 12:19:11;;;;;;;1.60;1.50;;;;;;;30.35;39.21;99092.36;1896152;75;28161;-48
2022/07/04 12:21:59;;;;;;;1.50;1.40;;;;;;;30.32;39.34;99090.97;1885838;75;28321;-48
2022/07/04 12:24:48;;;;;;;1.60;1.50;;;;;;;30.32;39.35;99105.38;1877992;75;28333;-50
2022/07/04 12:27:36;;;;;;;1.70;1.60;;;;;;;30.36;39.38;99088.48;1870220;74;28475;-49
2022/07/04 12:30:27;;;;;;;1.62;1.52;;;;;;;30.38;39.26;99069.05;1873999;75;28208;-47
2022/07/04 12:33:19;;;;;;;1.52;1.42;;;;;;;30.40;39.32;99075.67;1878198;75;28190;-46
2022/07/04 12:36:07;;;;;;;1.92;1.82;;;;;;;30.39;39.35;99063.75;1890506;75;28097;-48
2022/07/04 12:38:56;;;;;;;1.60;1.50;;;;;;;30.43;39.31;99030.73;1873693;75;28198;-48
2022/07/04 12:41:47;;;;;;;2.05;1.95;;;;;;;30.43;39.12;99032.95;1885748;75;28198;-47
2022/07/04 12:44:34;;;;;;;2.35;2.20;;;;;;;30.44;39.15;99029.05;1875860;75;28240;-48
2022/07/04 12:47:22;;;;;;;2.77;2.33;;;;;;;30.46;39.06;99011.55;1894340;75;28207;-53
2022/07/04 12:50:11;;;;;;;2.30;2.10;;;;;;;30.46;39.19;99020.42;1831324;76;28327;-44
2022/07/04 12:53:00;;;;;;;2.22;2.08;;;;;;;30.50;39.12;99025.06;1869488;75;28237;-46
2022/07/04 12:55:50;;;;;;;1.57;1.47;;;;;;;30.53;39.13;99013.95;1869534;75;28244;-44
2022/07/04 12:58:39;;;;;;;1.50;1.40;;;;;;;30.55;39.08;99045.80;1869955;75;28175;-43
2022/07/04 13:01:27;;;;;;;2.33;1.60;;;;;;;30.56;38.95;99021.12;1889520;75;28296;-45
2022/07/04 13:04:16;;;;;;;1.27;1.20;;;;;;;30.57;38.71;99037.20;1855727;76;28495;-45
2022/07/04 13:07:17;;;;;;;1.50;1.40;;;;;;;30.57;38.71;99024.72;1900077;75;28183;-44
2022/07/04 13:10:06;;;;;;;1.30;1.20;;;;;;;30.53;38.75;99003.69;1887485;75;28156;-48
2022/07/04 13:12:54;;;;;;;1.35;1.22;;;;;;;30.53;38.71;99034.19;1899270;75;28234;-46
2022/07/04 13:15:42;;;;;;;1.20;1.20;;;;;;;30.58;38.76;99034.67;1885786;75;28200;-46
2022/07/04 13:18:31;;;;;;;1.40;1.27;;;;;;;30.58;38.90;99008.34;1869014;76;28182;-55
2022/07/04 13:21:19;;;;;;;1.10;1.10;;;;;;;30.60;38.92;99015.79;1877605;73;28200;-50
2022/07/04 13:24:08;;;;;;;1.67;1.20;;;;;;;30.60;39.03;99028.27;1885916;73;28218;-49
2022/07/04 13:26:57;;;;;;;1.27;1.20;;;;;;;30.57;39.00;99010.28;1871613;75;32369;-47
2022/07/04 13:29:46;;;;;;;1.07;1.07;;;;;;;30.57;38.88;99006.70;1869211;75;28429;-44
2022/07/04 13:32:39;;;;;;;0.93;0.93;;;;;;;30.53;39.04;99000.91;1885729;75;28197;-46
2022/07/04 13:35:27;;;;;;;1.10;1.10;;;;;;;30.56;38.97;98979.53;1871637;75;38689;-47
2022/07/04 13:38:18;;;;;;;1.02;1.02;;;;;;;30.55;39.03;99003.41;1891954;75;28183;-49